Terminal Aerodrome Forecast
Issued by NWS Wakefield, VA

Home | Current Version | Previous Version | Text Only | Print | Product List | Glossary On
Versions: 1 2 3 4 5 6 7 8 9 10 11 12 13 14 15 16 17
000
FTUS41 KAKQ 291723
TAFORF
TAF
KORF 291723Z 2918/3018 36008KT P6SM VCSH SCT025 BKN045
     FM292200 04004KT P6SM SCT080 BKN250
     FM300600 08003KT P6SM SCT250
     FM301200 12005KT P6SM SCT080=

USA.gov is the U.S. government's official web portal to all federal, state and local government web resources and services.